Time;durP1;ratioP1;P1;durP2;ratioP2;P2;SDS_P1;SDS_P2;PMS_P1;PMS_P2;Temp;Humidity;BMP_temperature;BMP_pressure;BME280_temperature;BME280_humidity;BME280_pressure;Samples;Min_cycle;Max_cycle;Signal;HPM_P1;HPM_P2
2021/07/14 00:00:13;;;;;;;12.63;9.93;;;20.40;87.20;;;;;;5055193;28;20131;-79
2021/07/14 00:02:39;;;;;;;13.88;10.63;;;20.30;87.10;;;;;;5054919;28;20484;-79
2021/07/14 00:05:13;;;;;;;12.70;9.43;;;20.40;87.10;;;;;;5073078;28;20443;-79
2021/07/14 00:07:39;;;;;;;13.77;9.60;;;20.40;87.10;;;;;;5055068;28;20079;-79
2021/07/14 00:10:10;;;;;;;11.60;9.52;;;20.40;87.10;;;;;;5054857;28;20051;-79
2021/07/14 00:12:46;;;;;;;12.38;9.55;;;20.40;87.10;;;;;;5054903;28;20036;-80
2021/07/14 00:23:09;;;;;;;11.77;9.32;;;20.40;87.00;;;;;;5073120;28;20086;-79
2021/07/14 00:25:36;;;;;;;13.38;10.13;;;20.40;87.00;;;;;;5054932;28;20028;-79
2021/07/14 00:28:02;;;;;;;11.80;10.02;;;20.40;87.00;;;;;;5054873;28;20074;-79
2021/07/14 00:30:30;;;;;;;13.43;10.30;;;20.30;86.90;;;;;;5035201;28;20037;-79
2021/07/14 00:32:55;;;;;;;13.48;9.77;;;20.30;86.90;;;;;;5052779;28;20092;-80
2021/07/14 00:35:21;;;;;;;11.90;9.27;;;20.30;87.00;;;;;;5034794;28;20147;-79
2021/07/14 00:37:47;;;;;;;11.70;8.65;;;20.30;87.00;;;;;;5034716;28;20397;-78
2021/07/14 00:40:13;;;;;;;11.68;8.85;;;20.30;86.90;;;;;;5034900;28;20068;-79
2021/07/14 00:42:40;;;;;;;11.88;8.70;;;20.30;86.90;;;;;;5035050;28;20384;-79
2021/07/14 00:45:07;;;;;;;10.30;8.45;;;20.30;86.90;;;;;;5034685;28;20037;-79
2021/07/14 00:47:35;;;;;;;11.18;9.73;;;20.30;86.80;;;;;;5034722;28;20044;-78
2021/07/14 00:50:04;;;;;;;10.57;8.75;;;20.30;86.90;;;;;;5034497;28;20029;-77
2021/07/14 00:52:29;;;;;;;11.20;8.98;;;20.30;86.90;;;;;;5035053;28;20056;-78
2021/07/14 00:54:57;;;;;;;9.88;8.50;;;20.30;86.90;;;;;;5034572;28;20069;-79
2021/07/14 00:57:26;;;;;;;11.80;9.23;;;20.20;86.90;;;;;;5052454;28;20027;-79
2021/07/14 00:59:51;;;;;;;10.95;8.65;;;20.30;86.90;;;;;;5034438;28;20025;-79
2021/07/14 01:02:17;;;;;;;10.35;9.25;;;20.20;86.80;;;;;;5052460;28;20543;-77
2021/07/14 01:04:51;;;;;;;10.05;7.95;;;20.20;86.90;;;;;;5038310;28;20041;-78
2021/07/14 01:07:21;;;;;;;9.80;8.50;;;20.20;86.90;;;;;;5038433;28;20128;-78
2021/07/14 01:09:58;;;;;;;10.40;8.35;;;20.20;86.90;;;;;;5038270;28;20029;-79
2021/07/14 01:12:43;;;;;;;10.75;8.38;;;20.20;87.00;;;;;;5038397;28;20370;-79
2021/07/14 01:15:16;;;;;;;9.82;8.38;;;20.20;87.00;;;;;;5038167;28;20115;-79
2021/07/14 01:17:51;;;;;;;10.90;8.15;;;20.10;87.00;;;;;;5053578;28;20032;-79
2021/07/14 01:20:29;;;;;;;11.65;8.70;;;20.20;87.10;;;;;;5055825;28;20025;-79
2021/07/14 01:23:17;;;;;;;10.38;8.85;;;20.10;87.10;;;;;;5038358;28;20029;-79
2021/07/14 01:25:52;;;;;;;10.02;8.45;;;20.10;87.10;;;;;;5037971;28;20040;-79
2021/07/14 01:28:24;;;;;;;9.13;7.95;;;20.10;87.20;;;;;;5042072;28;20123;-79
2021/07/14 01:30:51;;;;;;;9.98;7.45;;;20.10;87.20;;;;;;5078013;28;20564;-80
2021/07/14 01:33:21;;;;;;;10.52;8.43;;;20.10;87.20;;;;;;5096075;28;20035;-78
2021/07/14 01:35:48;;;;;;;11.43;8.50;;;20.10;87.30;;;;;;5096030;28;20089;-80
2021/07/14 01:38:18;;;;;;;9.63;8.18;;;20.10;87.20;;;;;;5077813;28;20049;-78
2021/07/14 01:40:46;;;;;;;9.70;8.48;;;20.10;87.30;;;;;;5077836;28;20028;-79
2021/07/14 01:43:13;;;;;;;9.90;7.90;;;20.10;87.30;;;;;;5077719;28;20544;-79
2021/07/14 01:45:42;;;;;;;9.85;8.13;;;20.10;87.40;;;;;;5077711;28;20105;-80
2021/07/14 01:48:10;;;;;;;9.45;7.72;;;20.10;87.40;;;;;;5093121;28;20048;-79
2021/07/14 01:50:37;;;;;;;9.98;7.55;;;20.10;87.60;;;;;;5077717;28;20032;-79
2021/07/14 01:53:05;;;;;;;10.95;8.48;;;20.00;87.50;;;;;;5077597;28;20028;-79
2021/07/14 01:55:33;;;;;;;9.95;8.30;;;20.10;87.60;;;;;;5095607;28;20028;-79
2021/07/14 01:58:01;;;;;;;10.40;8.43;;;20.00;87.60;;;;;;5077396;28;20024;-79
2021/07/14 02:00:28;;;;;;;9.20;7.65;;;20.00;87.80;;;;;;5095563;28;20028;-79
2021/07/14 02:03:43;;;;;;;10.38;8.20;;;20.00;87.80;;;;;;5077401;28;20046;-79
2021/07/14 02:05:44;;;;;;;10.60;8.38;;;20.10;87.80;;;;;;5084638;28;20441;-78
2021/07/14 02:08:09;;;;;;;10.18;7.72;;;20.00;87.90;;;;;;5077296;28;20041;-79
2021/07/14 02:10:35;;;;;;;8.60;7.55;;;20.00;87.90;;;;;;5077333;28;20032;-78
2021/07/14 02:13:02;;;;;;;9.20;7.38;;;20.00;88.00;;;;;;5095442;28;20487;-79
2021/07/14 02:15:31;;;;;;;8.93;7.53;;;20.00;88.00;;;;;;5076101;28;20107;-79
2021/07/14 02:18:02;;;;;;;8.00;7.18;;;20.00;88.00;;;;;;5095225;28;20027;-79
2021/07/14 02:20:27;;;;;;;8.27;7.47;;;20.00;88.00;;;;;;5077497;28;20020;-78
2021/07/14 02:22:53;;;;;;;9.38;7.22;;;20.00;88.10;;;;;;5077114;28;20115;-77
2021/07/14 02:25:21;;;;;;;9.52;7.15;;;20.00;88.10;;;;;;5095276;28;20032;-79
2021/07/14 02:27:47;;;;;;;9.88;7.32;;;20.00;88.10;;;;;;5074435;28;20055;-78
2021/07/14 02:30:16;;;;;;;10.80;8.18;;;20.00;88.20;;;;;;5076751;28;20059;-79
2021/07/14 02:32:43;;;;;;;10.43;8.35;;;20.00;88.20;;;;;;5076813;28;20044;-78
2021/07/14 02:35:10;;;;;;;8.32;7.03;;;20.00;88.20;;;;;;5076796;28;20024;-79
2021/07/14 02:38:11;;;;;;;9.95;7.13;;;20.00;88.20;;;;;;5076786;28;20028;-78
2021/07/14 02:41:19;;;;;;;13.50;8.32;;;20.00;88.20;;;;;;5076502;28;20036;-78
2021/07/14 02:43:48;;;;;;;9.23;7.63;;;20.00;88.20;;;;;;5061360;28;20097;-78
2021/07/14 02:46:23;;;;;;;10.93;7.80;;;20.00;88.30;;;;;;5076589;28;20472;-78
2021/07/14 02:48:52;;;;;;;10.63;8.60;;;20.00;88.30;;;;;;5094741;28;20053;-79
2021/07/14 02:51:18;;;;;;;11.02;8.15;;;20.00;88.30;;;;;;5076589;28;20452;-78
2021/07/14 02:53:50;;;;;;;11.88;8.50;;;19.90;88.30;;;;;;5076417;28;20121;-78
2021/07/14 02:56:20;;;;;;;11.93;9.10;;;20.00;88.40;;;;;;5076285;28;20028;-78
2021/07/14 02:58:53;;;;;;;10.52;8.60;;;19.90;88.40;;;;;;5076382;28;20017;-79
2021/07/14 03:01:20;;;;;;;13.20;9.05;;;19.90;88.50;;;;;;5076229;28;20020;-78
2021/07/14 03:03:49;;;;;;;12.38;9.15;;;19.90;88.60;;;;;;5076184;28;20022;-78
2021/07/14 03:06:16;;;;;;;11.30;8.57;;;19.90;88.60;;;;;;5076220;28;20028;-79
2021/07/14 03:08:46;;;;;;;10.45;8.15;;;19.80;88.60;;;;;;5076152;28;20115;-79
2021/07/14 03:11:13;;;;;;;9.52;7.35;;;19.90;88.70;;;;;;5094241;28;20028;-79
2021/07/14 03:13:40;;;;;;;10.93;8.15;;;19.90;88.70;;;;;;5076172;28;20020;-79
2021/07/14 03:16:06;;;;;;;11.63;8.85;;;19.90;88.80;;;;;;5075918;28;20063;-82
2021/07/14 03:18:34;;;;;;;10.55;8.43;;;19.90;88.70;;;;;;5075929;28;20119;-80
2021/07/14 03:21:02;;;;;;;14.02;8.60;;;19.90;88.70;;;;;;5075971;28;20035;-80
2021/07/14 03:23:29;;;;;;;11.80;8.55;;;19.90;88.80;;;;;;5094109;28;20012;-79
2021/07/14 03:25:58;;;;;;;12.27;9.25;;;19.90;88.90;;;;;;5075680;28;20046;-80
2021/07/14 03:28:25;;;;;;;12.65;8.90;;;19.90;89.00;;;;;;5075826;28;20159;-80
2021/07/14 03:30:52;;;;;;;10.98;8.98;;;19.80;89.00;;;;;;5075802;28;20026;-80
2021/07/14 03:33:18;;;;;;;11.55;8.50;;;19.80;89.10;;;;;;5075744;28;20039;-79
2021/07/14 03:35:45;;;;;;;11.48;8.73;;;19.80;89.20;;;;;;5075537;28;20016;-80
2021/07/14 03:38:12;;;;;;;13.23;9.80;;;19.70;89.20;;;;;;5075535;28;20111;-78
2021/07/14 03:40:41;;;;;;;11.70;8.70;;;19.70;89.30;;;;;;5075469;28;20097;-78
2021/07/14 03:43:07;;;;;;;13.50;9.90;;;19.70;89.30;;;;;;5093741;28;20047;-79
2021/07/14 03:45:35;;;;;;;11.82;9.05;;;19.70;89.40;;;;;;5075566;28;20388;-79
2021/07/14 03:48:01;;;;;;;13.05;9.07;;;19.70;89.40;;;;;;5075371;28;20111;-79
2021/07/14 03:50:27;;;;;;;12.82;10.05;;;19.70;89.50;;;;;;5075416;28;20507;-78
2021/07/14 03:52:53;;;;;;;12.75;9.55;;;19.70;89.50;;;;;;5093606;28;20110;-79
2021/07/14 03:55:19;;;;;;;13.15;9.75;;;19.70;89.50;;;;;;5075314;28;20024;-80
2021/07/14 03:57:45;;;;;;;11.55;9.20;;;19.70;89.50;;;;;;5075284;28;20081;-79
2021/07/14 04:00:11;;;;;;;12.30;9.60;;;19.70;89.50;;;;;;5093457;28;20016;-78
2021/07/14 04:02:39;;;;;;;13.50;9.98;;;19.70;89.50;;;;;;5075300;28;20115;-79
2021/07/14 04:05:06;;;;;;;11.65;9.95;;;19.70;89.60;;;;;;5075099;28;20020;-80
2021/07/14 04:07:34;;;;;;;12.65;9.77;;;19.60;89.50;;;;;;5075301;28;20039;-80
2021/07/14 04:10:01;;;;;;;11.20;9.73;;;19.60;89.60;;;;;;5093205;28;20028;-79
2021/07/14 04:12:27;;;;;;;13.07;8.95;;;19.60;89.60;;;;;;5075211;28;20164;-80
2021/07/14 04:14:53;;;;;;;12.35;8.30;;;19.60;89.60;;;;;;5075049;28;20045;-80
2021/07/14 04:17:19;;;;;;;13.32;9.20;;;19.60;89.70;;;;;;5075159;28;20348;-80
2021/07/14 04:19:44;;;;;;;10.95;8.30;;;19.60;89.60;;;;;;5074910;28;20150;-80
2021/07/14 04:22:12;;;;;;;11.43;8.88;;;19.60;89.60;;;;;;5075110;28;20039;-79
2021/07/14 04:24:38;;;;;;;9.18;7.40;;;19.60;89.50;;;;;;5075020;28;20065;-79
2021/07/14 04:27:04;;;;;;;10.73;8.23;;;19.60;89.50;;;;;;5075063;28;20485;-79
2021/07/14 04:29:30;;;;;;;9.05;7.20;;;19.70;89.50;;;;;;5074747;28;20438;-79
2021/07/14 04:31:56;;;;;;;11.75;8.60;;;19.70;89.50;;;;;;5093148;28;20023;-79
2021/07/14 04:34:22;;;;;;;11.32;8.43;;;19.70;89.40;;;;;;5093051;28;20028;-79
2021/07/14 04:36:47;;;;;;;9.25;7.40;;;19.70;89.30;;;;;;5092975;28;20024;-79
2021/07/14 04:39:13;;;;;;;10.57;8.20;;;19.70;89.40;;;;;;5096077;28;20490;-78
2021/07/14 04:41:40;;;;;;;11.95;8.00;;;19.70;89.30;;;;;;5079033;28;20041;-78
2021/07/14 04:44:07;;;;;;;12.00;8.23;;;19.70;89.30;;;;;;5078993;28;20421;-78
2021/07/14 04:46:33;;;;;;;11.07;8.23;;;19.60;89.40;;;;;;5078949;28;20036;-79
2021/07/14 04:48:59;;;;;;;10.88;7.82;;;19.60;89.40;;;;;;5078708;28;20065;-78
2021/07/14 04:51:25;;;;;;;9.30;7.13;;;19.60;89.40;;;;;;5096916;28;20024;-79
2021/07/14 04:53:51;;;;;;;8.80;6.93;;;19.60;89.40;;;;;;5078844;28;20502;-79
2021/07/14 04:56:17;;;;;;;9.80;7.32;;;19.60;89.40;;;;;;5096866;28;20028;-79
2021/07/14 04:58:44;;;;;;;7.82;6.78;;;19.60;89.40;;;;;;5078808;28;20490;-79
2021/07/14 05:01:10;;;;;;;11.18;7.82;;;19.60;89.30;;;;;;5078445;28;20024;-79
2021/07/14 05:03:36;;;;;;;8.07;6.50;;;19.60;89.30;;;;;;5078458;28;20493;-79
2021/07/14 05:06:01;;;;;;;8.57;6.65;;;19.60;89.30;;;;;;5078487;28;20024;-79
2021/07/14 05:08:27;;;;;;;7.93;6.38;;;19.60;89.30;;;;;;5078521;28;20108;-78
2021/07/14 05:10:52;;;;;;;9.88;7.28;;;19.60;89.20;;;;;;5078386;28;20049;-78
2021/07/14 05:13:18;;;;;;;8.57;6.70;;;19.60;89.20;;;;;;5078403;28;20012;-79
2021/07/14 05:15:44;;;;;;;9.50;7.10;;;19.60;89.20;;;;;;5096433;28;20056;-78
2021/07/14 05:18:12;;;;;;;7.47;6.25;;;19.60;89.20;;;;;;5078366;28;20016;-79
2021/07/14 05:20:38;;;;;;;7.25;6.00;;;19.60;89.10;;;;;;5078319;28;20048;-79
2021/07/14 05:23:04;;;;;;;9.35;6.43;;;19.60;89.10;;;;;;5078216;28;20507;-78
2021/07/14 05:25:30;;;;;;;8.05;6.57;;;19.60;89.00;;;;;;5096369;28;20020;-78
2021/07/14 05:27:56;;;;;;;8.70;6.95;;;19.60;89.00;;;;;;5096371;28;20107;-79
2021/07/14 05:30:21;;;;;;;9.38;6.38;;;19.70;89.00;;;;;;5077873;28;20040;-78
2021/07/14 05:32:47;;;;;;;8.32;7.03;;;19.70;88.90;;;;;;5096229;28;20487;-79
2021/07/14 05:35:13;;;;;;;9.30;7.40;;;19.70;88.90;;;;;;5077873;28;20055;-79
2021/07/14 05:37:38;;;;;;;8.80;6.50;;;19.70;88.90;;;;;;5077849;28;20119;-79
2021/07/14 05:40:05;;;;;;;7.30;6.50;;;19.70;89.00;;;;;;5077874;28;20456;-79
2021/07/14 05:42:31;;;;;;;7.07;6.20;;;19.70;88.90;;;;;;5095980;28;20152;-79
2021/07/14 05:44:57;;;;;;;7.53;6.03;;;19.80;88.90;;;;;;5095883;28;20472;-79
2021/07/14 05:47:22;;;;;;;7.70;6.45;;;19.70;88.80;;;;;;5095917;28;20099;-79
2021/07/14 05:49:48;;;;;;;8.00;6.57;;;19.80;88.70;;;;;;5076288;28;20035;-78
2021/07/14 05:52:14;;;;;;;8.05;6.88;;;19.80;88.60;;;;;;5095947;28;20404;-78
2021/07/14 05:54:41;;;;;;;6.97;6.28;;;19.80;88.50;;;;;;5077571;28;20026;-79
2021/07/14 05:57:07;;;;;;;7.20;5.80;;;19.80;88.60;;;;;;5095648;28;20021;-79
2021/07/14 05:59:32;;;;;;;7.80;5.90;;;19.80;88.50;;;;;;5077461;28;20020;-79
2021/07/14 06:01:58;;;;;;;6.93;6.22;;;19.80;88.40;;;;;;5077248;28;20017;-79
2021/07/14 06:04:24;;;;;;;7.95;6.18;;;19.80;88.30;;;;;;5074482;28;20059;-79
2021/07/14 06:06:49;;;;;;;6.65;5.80;;;19.90;88.40;;;;;;5095695;28;20024;-79
2021/07/14 06:09:15;;;;;;;7.32;6.30;;;19.90;88.30;;;;;;5077234;28;20069;-79
2021/07/14 06:11:41;;;;;;;10.35;7.97;;;20.00;88.30;;;;;;5095328;28;20020;-79
2021/07/14 06:14:07;;;;;;;8.18;6.55;;;20.00;88.10;;;;;;5077234;28;20020;-79
2021/07/14 06:16:33;;;;;;;8.05;6.97;;;19.90;88.00;;;;;;5077069;28;20484;-79
2021/07/14 06:18:59;;;;;;;9.55;7.35;;;20.00;88.10;;;;;;5077085;28;20027;-79
2021/07/14 06:21:25;;;;;;;8.95;7.57;;;20.00;88.00;;;;;;5077195;28;20552;-79
2021/07/14 06:23:51;;;;;;;9.90;7.57;;;20.00;87.90;;;;;;5077210;28;20392;-79
2021/07/14 06:26:17;;;;;;;9.30;8.00;;;20.00;87.80;;;;;;5077087;28;20024;-79
2021/07/14 06:28:43;;;;;;;9.05;7.63;;;20.10;87.80;;;;;;5094938;28;20044;-78
2021/07/14 06:31:08;;;;;;;8.60;7.70;;;20.10;87.60;;;;;;5074085;28;20027;-79
2021/07/14 06:33:36;;;;;;;8.75;6.57;;;20.20;87.60;;;;;;5077080;28;20476;-79
2021/07/14 06:36:03;;;;;;;9.07;8.15;;;20.20;87.60;;;;;;5076745;28;20028;-79
2021/07/14 06:38:29;;;;;;;9.60;7.75;;;20.20;87.40;;;;;;5076789;28;20114;-79
2021/07/14 06:40:58;;;;;;;9.20;7.95;;;20.20;87.40;;;;;;5076832;28;20023;-79
2021/07/14 06:43:31;;;;;;;8.40;6.75;;;20.30;87.30;;;;;;5094899;28;20024;-79
2021/07/14 06:45:57;;;;;;;8.15;7.35;;;20.30;87.30;;;;;;5076718;28;20030;-80
2021/07/14 06:48:23;;;;;;;8.15;7.03;;;20.40;87.10;;;;;;5076627;28;20028;-79
2021/07/14 06:50:48;;;;;;;8.63;6.93;;;20.40;87.00;;;;;;5076560;28;20059;-79
2021/07/14 06:53:14;;;;;;;8.98;7.45;;;20.40;87.00;;;;;;5076509;28;20036;-79
2021/07/14 06:55:40;;;;;;;8.48;7.20;;;20.40;86.80;;;;;;5073586;28;20473;-80
2021/07/14 06:58:05;;;;;;;7.78;6.63;;;20.40;86.80;;;;;;5076695;28;20483;-80
2021/07/14 07:00:35;;;;;;;7.90;6.47;;;20.40;86.80;;;;;;5094336;28;20024;-80
2021/07/14 07:03:01;;;;;;;7.10;6.40;;;20.50;86.80;;;;;;5076945;28;20022;-80
2021/07/14 07:05:27;;;;;;;7.65;6.78;;;20.50;86.60;;;;;;5076351;28;20559;-79
2021/07/14 07:07:52;;;;;;;6.65;6.00;;;20.60;86.30;;;;;;5094407;28;20059;-80
2021/07/14 07:10:18;;;;;;;7.25;6.30;;;20.60;86.10;;;;;;5076227;28;20138;-80
2021/07/14 07:12:46;;;;;;;7.57;6.43;;;20.60;86.10;;;;;;5076480;28;20024;-80
2021/07/14 07:15:13;;;;;;;6.85;6.15;;;20.60;86.00;;;;;;5076044;28;20027;-80
2021/07/14 07:17:39;;;;;;;6.85;6.03;;;20.60;86.10;;;;;;5075964;28;20024;-79
2021/07/14 07:20:05;;;;;;;6.75;6.05;;;20.60;86.10;;;;;;5076006;28;20421;-77
2021/07/14 07:22:33;;;;;;;8.80;7.25;;;20.60;86.10;;;;;;5075979;28;20531;-76
2021/07/14 07:25:01;;;;;;;8.88;7.03;;;20.60;86.00;;;;;;5076101;28;20069;-80
2021/07/14 07:27:33;;;;;;;8.30;7.45;;;20.60;86.00;;;;;;5074055;28;20020;-78
2021/07/14 07:29:58;;;;;;;7.97;7.15;;;20.50;86.00;;;;;;5075523;28;20047;-78
2021/07/14 07:32:24;;;;;;;8.82;7.93;;;20.50;86.10;;;;;;5093862;28;20365;-78
2021/07/14 07:34:49;;;;;;;9.55;8.10;;;20.50;86.10;;;;;;5075700;28;20559;-77
2021/07/14 07:37:15;;;;;;;9.48;7.72;;;20.50;86.10;;;;;;5075695;28;20016;-77
2021/07/14 07:39:42;;;;;;;8.50;6.95;;;20.40;86.00;;;;;;5093689;28;20117;-78
2021/07/14 07:42:07;;;;;;;9.57;7.15;;;20.50;86.00;;;;;;5093634;28;20008;-77
2021/07/14 07:44:33;;;;;;;12.30;9.20;;;20.50;86.00;;;;;;5093715;28;20027;-77
2021/07/14 07:46:59;;;;;;;9.60;7.47;;;20.50;85.80;;;;;;5075677;28;20054;-77
2021/07/14 07:49:24;;;;;;;8.35;7.25;;;20.50;85.90;;;;;;5075454;28;20020;-77
2021/07/14 07:51:50;;;;;;;10.50;7.35;;;20.50;85.90;;;;;;5075266;28;20111;-77
2021/07/14 07:54:18;;;;;;;10.00;7.72;;;20.50;85.80;;;;;;5093667;28;20111;-76
2021/07/14 07:56:44;;;;;;;10.05;8.52;;;20.60;85.80;;;;;;5075363;28;20024;-79
2021/07/14 07:59:09;;;;;;;12.90;10.05;;;20.50;85.70;;;;;;5075361;28;20039;-78
2021/07/14 08:01:37;;;;;;;12.55;9.90;;;20.50;85.70;;;;;;5075234;28;20107;-79
2021/07/14 08:04:03;;;;;;;13.23;9.60;;;20.40;85.80;;;;;;5075290;28;20052;-79
2021/07/14 08:06:30;;;;;;;13.60;9.57;;;20.30;86.00;;;;;;5075342;28;20025;-82
2021/07/14 08:08:55;;;;;;;13.07;9.90;;;20.30;86.10;;;;;;5075790;28;20039;-82
2021/07/14 08:11:21;;;;;;;12.52;9.63;;;20.20;86.20;;;;;;5075257;28;20021;-78
2021/07/14 08:13:47;;;;;;;11.25;9.20;;;20.20;86.20;;;;;;5092848;28;20031;-78
2021/07/14 08:16:13;;;;;;;9.73;8.57;;;20.30;86.20;;;;;;5093731;28;20031;-81
2021/07/14 08:18:38;;;;;;;11.32;8.68;;;20.30;86.30;;;;;;5093779;28;20049;-81
2021/07/14 08:21:04;;;;;;;12.65;9.52;;;20.30;86.20;;;;;;5075370;28;20020;-81
2021/07/14 08:23:31;;;;;;;13.23;10.60;;;20.40;86.20;;;;;;5076126;28;20024;-84
2021/07/14 08:25:57;;;;;;;13.25;9.55;;;20.40;86.00;;;;;;5094304;28;20024;-85
2021/07/14 08:28:23;;;;;;;11.52;8.93;;;20.40;86.10;;;;;;5075828;28;20425;-86
2021/07/14 08:31:02;;;;;;;13.15;9.68;;;20.40;86.10;;;;;;5076280;28;20114;-93
2021/07/14 08:36:50;;;;;;;13.50;10.20;;;20.40;86.00;;;;;;5093629;28;20096;-84
2021/07/14 08:39:15;;;;;;;13.57;10.00;;;20.40;86.00;;;;;;5075358;28;20024;-83
2021/07/14 08:41:43;;;;;;;10.68;9.18;;;20.30;86.00;;;;;;5075458;28;20031;-83
2021/07/14 08:44:10;;;;;;;10.57;9.38;;;20.30;86.10;;;;;;5075220;28;20019;-83
2021/07/14 08:46:37;;;;;;;12.73;9.98;;;20.30;86.20;;;;;;5075388;28;20153;-80
2021/07/14 08:49:05;;;;;;;10.05;8.90;;;20.30;86.20;;;;;;5087619;28;20095;-79
2021/07/14 08:51:36;;;;;;;8.57;7.68;;;20.30;86.20;;;;;;5082864;28;20020;-78
2021/07/14 08:54:03;;;;;;;10.43;8.85;;;20.30;86.20;;;;;;5075139;28;20028;-77
2021/07/14 08:56:29;;;;;;;10.18;8.40;;;20.40;86.20;;;;;;5074852;28;20467;-80
2021/07/14 08:58:55;;;;;;;10.70;7.82;;;20.40;86.10;;;;;;5092919;28;20012;-82
2021/07/14 09:01:21;;;;;;;8.50;7.57;;;20.40;86.10;;;;;;5092899;28;20067;-77
2021/07/14 09:03:47;;;;;;;8.18;7.18;;;20.40;86.10;;;;;;5092652;28;20107;-76
2021/07/14 09:06:13;;;;;;;10.32;7.38;;;20.40;86.10;;;;;;5092705;28;20036;-78
2021/07/14 09:08:38;;;;;;;8.30;7.50;;;20.40;86.00;;;;;;5074628;28;20353;-76
2021/07/14 09:11:06;;;;;;;12.05;8.45;;;20.50;86.00;;;;;;5074572;28;20073;-75
2021/07/14 09:13:38;;;;;;;8.00;7.20;;;20.50;85.80;;;;;;5092496;28;20472;-76
2021/07/14 09:16:05;;;;;;;9.35;7.80;;;20.60;85.80;;;;;;5092507;28;20103;-76
2021/07/14 09:18:32;;;;;;;8.73;7.40;;;20.60;85.70;;;;;;5075148;28;20447;-75
2021/07/14 09:20:58;;;;;;;9.02;7.32;;;20.70;85.70;;;;;;5074515;28;20048;-79
2021/07/14 09:23:29;;;;;;;8.88;7.20;;;20.70;85.50;;;;;;5074538;28;20035;-76
2021/07/14 09:26:00;;;;;;;8.85;7.05;;;20.70;85.40;;;;;;5078150;28;20032;-79
2021/07/14 09:28:33;;;;;;;8.52;7.60;;;20.80;85.40;;;;;;5096079;28;20044;-72
2021/07/14 09:31:02;;;;;;;8.80;7.78;;;20.80;85.30;;;;;;5096255;28;20048;-72
2021/07/14 09:33:28;;;;;;;10.27;7.47;;;20.90;85.40;;;;;;5078025;28;20081;-73
2021/07/14 09:35:55;;;;;;;9.82;8.50;;;20.90;85.30;;;;;;5096021;28;20498;-73
2021/07/14 09:38:22;;;;;;;13.80;9.77;;;20.90;85.20;;;;;;5077819;28;20028;-72
2021/07/14 09:41:00;;;;;;;12.63;9.50;;;20.90;85.20;;;;;;5077774;28;20115;-75
2021/07/14 09:43:28;;;;;;;13.55;9.55;;;20.90;85.20;;;;;;5077836;28;20024;-75
2021/07/14 09:46:09;;;;;;;10.23;8.73;;;20.90;85.30;;;;;;5077597;28;20035;-74
2021/07/14 09:48:40;;;;;;;10.68;8.68;;;20.90;85.30;;;;;;5077838;28;20042;-74
2021/07/14 09:51:16;;;;;;;10.75;9.07;;;20.90;85.20;;;;;;5077649;28;20605;-74
2021/07/14 09:53:47;;;;;;;11.30;8.43;;;20.90;85.30;;;;;;5077611;28;20090;-79
2021/07/14 09:56:14;;;;;;;10.90;8.50;;;20.90;85.30;;;;;;5077687;28;20391;-79
2021/07/14 09:58:40;;;;;;;11.68;8.65;;;20.90;85.40;;;;;;5077610;28;20492;-78
2021/07/14 10:01:07;;;;;;;11.45;9.02;;;20.80;85.40;;;;;;5077288;28;20061;-76
2021/07/14 10:03:37;;;;;;;12.02;8.77;;;20.90;85.50;;;;;;5077359;28;20024;-78
2021/07/14 10:06:11;;;;;;;10.57;9.43;;;20.90;85.50;;;;;;5077589;28;20081;-77
2021/07/14 10:08:47;;;;;;;11.25;8.75;;;20.90;85.40;;;;;;5095558;28;20102;-76
2021/07/14 10:11:27;;;;;;;11.80;9.40;;;20.90;85.30;;;;;;5095412;28;20056;-76
2021/07/14 10:13:57;;;;;;;11.00;9.35;;;21.00;85.30;;;;;;5077553;28;20028;-76
2021/07/14 10:16:27;;;;;;;10.38;9.23;;;21.00;85.30;;;;;;5077079;28;20104;-76
2021/07/14 10:19:12;;;;;;;28.77;11.18;;;21.00;85.20;;;;;;5077192;28;20020;-78
2021/07/14 10:21:39;;;;;;;16.17;10.80;;;21.10;85.10;;;;;;5095208;28;20078;-75
2021/07/14 10:24:06;;;;;;;13.75;10.00;;;21.00;84.90;;;;;;5095309;28;20060;-81
2021/07/14 10:26:34;;;;;;;12.40;9.77;;;21.10;85.00;;;;;;5095210;28;20400;-75
2021/07/14 10:29:04;;;;;;;13.27;10.80;;;21.10;85.00;;;;;;5076748;28;20047;-75
2021/07/14 10:31:30;;;;;;;12.77;9.60;;;21.00;84.90;;;;;;5077041;28;20028;-75
2021/07/14 10:33:56;;;;;;;11.63;9.48;;;21.00;85.00;;;;;;5094992;28;20483;-75
2021/07/14 10:36:29;;;;;;;11.93;9.18;;;21.00;85.10;;;;;;5075940;28;20119;-74
2021/07/14 10:39:00;;;;;;;10.50;8.80;;;21.00;85.20;;;;;;5076722;28;20024;-75
2021/07/14 10:41:30;;;;;;;11.75;9.70;;;21.00;85.30;;;;;;5076652;28;20031;-75
2021/07/14 10:43:56;;;;;;;14.63;10.48;;;20.90;85.30;;;;;;5076663;28;20039;-75
2021/07/14 10:46:25;;;;;;;12.90;9.30;;;20.90;85.30;;;;;;5076483;28;20027;-75
2021/07/14 10:48:52;;;;;;;12.18;9.82;;;20.90;85.50;;;;;;5076776;28;20032;-76
2021/07/14 10:51:19;;;;;;;12.98;9.60;;;20.80;85.60;;;;;;5076539;28;20032;-75
2021/07/14 10:53:48;;;;;;;10.43;8.73;;;20.80;85.70;;;;;;5076375;28;20051;-75
2021/07/14 10:56:15;;;;;;;11.18;8.50;;;20.70;85.90;;;;;;5076267;28;20119;-76
2021/07/14 10:58:42;;;;;;;13.25;9.27;;;20.70;86.00;;;;;;5094548;28;20035;-76
2021/07/14 11:01:08;;;;;;;10.73;8.20;;;20.70;86.10;;;;;;5076144;28;20387;-75
2021/07/14 11:03:36;;;;;;;11.52;8.50;;;20.70;86.20;;;;;;5076284;28;20023;-76
2021/07/14 11:06:03;;;;;;;10.88;8.30;;;20.70;86.30;;;;;;5076176;28;20032;-75
2021/07/14 11:08:48;;;;;;;11.90;8.80;;;20.70;86.10;;;;;;5076221;28;20074;-76
2021/07/14 11:11:18;;;;;;;10.63;8.43;;;20.80;86.10;;;;;;5076153;28;20599;-75
2021/07/14 11:13:48;;;;;;;10.88;8.63;;;20.70;86.10;;;;;;5076634;28;20028;-80
2021/07/14 11:16:30;;;;;;;11.00;8.32;;;20.70;86.30;;;;;;5076078;28;20087;-80
2021/07/14 11:19:06;;;;;;;10.30;8.27;;;20.60;86.50;;;;;;5094327;28;20035;-80
2021/07/14 11:21:53;;;;;;;9.60;7.90;;;20.60;86.60;;;;;;5076554;28;20032;-78
2021/07/14 11:27:18;;;;;;;11.32;7.80;;;20.60;86.60;;;;;;5094797;28;20119;-79
2021/07/14 11:30:05;;;;;;;12.45;8.88;;;20.60;86.60;;;;;;5080281;28;20479;-78
2021/07/14 11:32:34;;;;;;;15.13;10.55;;;20.50;86.60;;;;;;5054889;28;20563;-77
2021/07/14 11:35:00;;;;;;;10.90;8.98;;;20.50;86.80;;;;;;5055547;28;20040;-75
2021/07/14 11:37:33;;;;;;;13.80;8.63;;;20.40;86.90;;;;;;5055611;28;20035;-76
2021/07/14 11:40:17;;;;;;;10.25;8.32;;;20.40;87.20;;;;;;5055542;28;20091;-77
2021/07/14 11:42:49;;;;;;;12.90;9.10;;;20.30;87.20;;;;;;5073366;28;20029;-79
2021/07/14 11:45:16;;;;;;;10.70;8.13;;;20.30;87.30;;;;;;5055461;28;20032;-77
2021/07/14 11:47:41;;;;;;;15.20;9.73;;;20.40;87.40;;;;;;5055586;28;20056;-77
2021/07/14 11:50:10;;;;;;;14.45;9.65;;;20.40;87.40;;;;;;5055373;28;20492;-76
2021/07/14 11:52:45;;;;;;;10.48;8.05;;;20.40;87.40;;;;;;5073308;28;20035;-75
2021/07/14 11:55:23;;;;;;;10.85;7.82;;;20.30;87.40;;;;;;5055199;28;20488;-78
2021/07/14 11:57:50;;;;;;;9.48;7.47;;;20.40;87.30;;;;;;5073412;28;20078;-76
2021/07/14 12:00:17;;;;;;;12.35;8.68;;;20.50;87.20;;;;;;5073225;28;20045;-76
2021/07/14 12:03:03;;;;;;;13.00;8.68;;;20.50;87.00;;;;;;5073158;28;20025;-76
2021/07/14 12:05:33;;;;;;;10.45;8.05;;;20.50;86.90;;;;;;5073276;28;20047;-77
2021/07/14 12:08:12;;;;;;;10.30;8.40;;;20.50;86.80;;;;;;5055063;28;20028;-76
2021/07/14 12:10:39;;;;;;;11.15;8.73;;;20.60;86.80;;;;;;5073046;28;20044;-76
2021/07/14 12:13:06;;;;;;;11.45;8.40;;;20.60;86.70;;;;;;5072904;28;20035;-76
2021/07/14 12:15:45;;;;;;;9.73;7.65;;;20.70;86.80;;;;;;5054945;28;20039;-76
2021/07/14 12:18:12;;;;;;;11.75;9.25;;;20.70;86.50;;;;;;5054925;28;20070;-76
2021/07/14 12:20:46;;;;;;;12.20;8.57;;;20.70;86.20;;;;;;5073030;28;20036;-76
2021/07/14 12:23:15;;;;;;;10.80;8.38;;;20.80;86.30;;;;;;5072934;28;20021;-76
2021/07/14 12:25:42;;;;;;;9.45;7.70;;;20.70;86.20;;;;;;5072899;28;20519;-76
2021/07/14 12:28:12;;;;;;;9.98;8.10;;;20.70;86.20;;;;;;5072515;28;20029;-76
2021/07/14 12:30:43;;;;;;;10.98;8.18;;;20.80;86.30;;;;;;5054845;28;20052;-76
2021/07/14 12:33:11;;;;;;;10.00;8.13;;;20.80;86.10;;;;;;5054902;28;20024;-76
2021/07/14 12:35:39;;;;;;;11.90;8.45;;;20.80;85.90;;;;;;5072426;28;20037;-76
2021/07/14 12:38:15;;;;;;;9.38;7.78;;;20.90;86.00;;;;;;5054959;28;20029;-76
2021/07/14 12:40:46;;;;;;;10.25;7.97;;;20.90;85.90;;;;;;5054899;28;20032;-76
2021/07/14 12:43:22;;;;;;;9.18;7.95;;;20.90;85.70;;;;;;5072896;28;20017;-77
2021/07/14 12:45:49;;;;;;;9.57;7.20;;;21.00;85.70;;;;;;5072743;28;20033;-76
2021/07/14 12:48:28;;;;;;;9.65;7.60;;;21.00;85.60;;;;;;5054868;28;20028;-76
2021/07/14 12:50:54;;;;;;;8.82;7.35;;;21.10;85.30;;;;;;5054524;28;20029;-75
2021/07/14 12:53:21;;;;;;;8.43;6.97;;;21.20;85.10;;;;;;5055057;28;20456;-76
2021/07/14 12:55:48;;;;;;;8.13;7.22;;;21.20;84.90;;;;;;5072458;28;20128;-76
2021/07/14 12:58:16;;;;;;;8.88;7.22;;;21.30;84.90;;;;;;5072600;28;20052;-76
2021/07/14 13:00:44;;;;;;;8.63;6.80;;;21.30;84.70;;;;;;5058389;28;20021;-76